Time;durP1;ratioP1;P1;durP2;ratioP2;P2;SDS_P1;SDS_P2;PMS_P1;PMS_P2;Temp;Humidity;BMP_temperature;BMP_pressure;BME280_temperature;BME280_humidity;BME280_pressure;Samples;Min_cycle;Max_cycle;Signal;HPM_P1;HPM_P2
2023/12/27 00:00:04;;;;;;;10.88;3.25;;;2.90;99.90;;;;;;5095082;28;20048;-83
2023/12/27 00:02:31;;;;;;;7.95;2.85;;;2.90;99.90;;;;;;5092246;28;20086;-84
2023/12/27 00:04:58;;;;;;;9.10;2.83;;;2.80;99.90;;;;;;5094234;28;20720;-83
2023/12/27 00:07:25;;;;;;;6.53;2.50;;;2.90;99.90;;;;;;5093867;28;20097;-83
2023/12/27 00:09:53;;;;;;;7.85;2.67;;;2.80;99.90;;;;;;5094158;28;20048;-82
2023/12/27 00:12:20;;;;;;;10.23;2.95;;;2.80;99.90;;;;;;5094337;28;20373;-83
2023/12/27 00:14:47;;;;;;;10.88;3.45;;;2.70;99.90;;;;;;5093403;28;20044;-82
2023/12/27 00:17:14;;;;;;;10.20;3.03;;;2.70;99.90;;;;;;5093744;28;20048;-82
2023/12/27 00:19:41;;;;;;;8.00;2.70;;;2.70;99.90;;;;;;5094136;28;20109;-82
2023/12/27 00:22:07;;;;;;;6.22;2.42;;;2.60;99.90;;;;;;5093491;28;20040;-83
2023/12/27 00:24:34;;;;;;;9.23;3.28;;;2.60;99.90;;;;;;5093957;28;20548;-81
2023/12/27 00:27:03;;;;;;;9.70;3.03;;;2.60;99.90;;;;;;5094054;28;20048;-82
2023/12/27 00:29:31;;;;;;;6.55;2.58;;;2.60;99.90;;;;;;5093085;28;20048;-81
2023/12/27 00:31:58;;;;;;;15.50;3.00;;;2.50;99.90;;;;;;5093662;28;20032;-83
2023/12/27 00:34:25;;;;;;;12.70;2.75;;;2.50;99.90;;;;;;5091061;28;20048;-82
2023/12/27 00:36:51;;;;;;;8.20;2.17;;;2.40;99.90;;;;;;5093643;28;20047;-81
2023/12/27 00:39:23;;;;;;;7.88;2.72;;;2.40;99.90;;;;;;5093519;28;20048;-82
2023/12/27 00:41:50;;;;;;;9.90;2.70;;;2.40;99.90;;;;;;5092878;28;20047;-82
2023/12/27 00:44:18;;;;;;;14.32;3.38;;;2.40;99.90;;;;;;5093056;28;20040;-81
2023/12/27 00:46:45;;;;;;;10.68;3.10;;;2.30;99.90;;;;;;5091446;28;20052;-82
2023/12/27 00:49:12;;;;;;;9.73;2.63;;;2.30;99.90;;;;;;5092953;28;20097;-82
2023/12/27 00:51:39;;;;;;;7.28;2.65;;;2.30;99.90;;;;;;5093096;28;20483;-81
2023/12/27 00:54:06;;;;;;;8.55;2.75;;;2.30;99.90;;;;;;5092818;28;20071;-81
2023/12/27 00:56:33;;;;;;;12.88;2.92;;;2.20;99.90;;;;;;5092854;28;20108;-81
2023/12/27 00:59:00;;;;;;;7.63;2.70;;;2.20;99.90;;;;;;5093040;28;20058;-83
2023/12/27 01:01:30;;;;;;;7.85;2.88;;;2.20;99.90;;;;;;5093380;28;20059;-81
2023/12/27 01:03:57;;;;;;;8.77;2.72;;;2.20;99.90;;;;;;5090677;28;20467;-81
2023/12/27 01:06:23;;;;;;;11.05;3.03;;;2.20;99.90;;;;;;5093412;28;21373;-82
2023/12/27 01:08:50;;;;;;;16.83;3.10;;;2.50;99.90;;;;;;5094136;28;20384;-81
2023/12/27 01:11:17;;;;;;;9.60;3.33;;;2.10;99.90;;;;;;5094472;28;20048;-83
2023/12/27 01:13:44;;;;;;;12.70;3.28;;;2.10;99.90;;;;;;5094828;28;20411;-83
2023/12/27 01:16:11;;;;;;;13.75;3.85;;;2.60;99.90;;;;;;5094641;28;20446;-83
2023/12/27 01:18:39;;;;;;;10.82;3.50;;;2.50;99.90;;;;;;5093969;28;20052;-83
2023/12/27 01:21:06;;;;;;;8.38;3.45;;;2.70;99.90;;;;;;5094621;28;20052;-83
2023/12/27 01:23:33;;;;;;;7.97;4.45;;;2.40;99.90;;;;;;5093619;28;20048;-83
2023/12/27 01:26:00;;;;;;;10.63;3.25;;;1.90;99.90;;;;;;5093936;28;20523;-83
2023/12/27 01:28:27;;;;;;;12.48;3.47;;;1.90;99.90;;;;;;5094951;28;20553;-83
2023/12/27 01:30:53;;;;;;;8.32;3.15;;;1.90;99.90;;;;;;5093792;28;20434;-83
2023/12/27 01:33:20;;;;;;;8.32;3.72;;;1.90;99.90;;;;;;5092691;28;20488;-82
2023/12/27 01:35:48;;;;;;;10.57;3.28;;;1.80;99.90;;;;;;5092520;28;20454;-83
2023/12/27 01:38:15;;;;;;;11.50;3.60;;;2.50;99.90;;;;;;5093305;28;20051;-82
2023/12/27 01:40:48;;;;;;;10.50;3.60;;;1.90;99.90;;;;;;5092688;28;20097;-82
2023/12/27 01:43:15;;;;;;;11.63;3.20;;;1.80;99.90;;;;;;5092389;28;20131;-82
2023/12/27 01:45:43;;;;;;;10.77;3.33;;;1.80;99.90;;;;;;5091909;28;20052;-82
2023/12/27 01:48:10;;;;;;;15.23;3.40;;;1.70;99.90;;;;;;5092290;28;20054;-82
2023/12/27 01:50:38;;;;;;;11.52;3.50;;;2.30;99.90;;;;;;5092260;28;20108;-82
2023/12/27 01:53:08;;;;;;;13.07;3.28;;;1.80;99.90;;;;;;5091681;28;20048;-81
2023/12/27 01:55:35;;;;;;;7.15;3.38;;;1.70;99.90;;;;;;5091134;28;20075;-82
2023/12/27 01:58:07;;;;;;;9.05;3.53;;;1.70;99.90;;;;;;5091559;28;20056;-82
2023/12/27 02:00:37;;;;;;;9.23;3.53;;;1.70;99.90;;;;;;5090402;28;20079;-82
2023/12/27 02:03:04;;;;;;;10.77;3.40;;;1.70;99.90;;;;;;5089904;28;20055;-82
2023/12/27 02:05:31;;;;;;;6.70;2.88;;;1.60;99.90;;;;;;5092076;28;20078;-82
2023/12/27 02:08:00;;;;;;;8.00;3.50;;;1.70;99.90;;;;;;5091540;28;20135;-81
2023/12/27 02:10:28;;;;;;;8.95;3.22;;;1.60;99.90;;;;;;5092004;28;20052;-83
2023/12/27 02:12:55;;;;;;;12.52;3.15;;;1.60;99.90;;;;;;5091251;28;20040;-82
2023/12/27 02:15:22;;;;;;;6.75;3.78;;;1.50;99.90;;;;;;5092178;28;20090;-82
2023/12/27 02:17:50;;;;;;;12.15;3.58;;;1.50;99.90;;;;;;5091768;28;20055;-83
2023/12/27 02:20:17;;;;;;;11.43;3.90;;;1.50;99.90;;;;;;5091502;28;20044;-82
2023/12/27 02:22:47;;;;;;;15.48;4.32;;;1.40;99.90;;;;;;5089362;28;20040;-82
2023/12/27 02:25:15;;;;;;;13.02;3.35;;;1.30;99.90;;;;;;5091756;28;20466;-82
2023/12/27 02:27:44;;;;;;;11.02;3.33;;;1.50;99.90;;;;;;5091053;28;20442;-82
2023/12/27 02:30:18;;;;;;;6.90;2.97;;;1.30;99.90;;;;;;5089512;28;20093;-83
2023/12/27 02:32:45;;;;;;;11.55;3.17;;;1.30;99.90;;;;;;5091497;28;20377;-84
2023/12/27 02:35:12;;;;;;;6.18;3.08;;;2.10;99.90;;;;;;5090565;28;20495;-83
2023/12/27 02:37:39;;;;;;;9.85;2.92;;;1.20;99.90;;;;;;5091543;28;20101;-83
2023/12/27 02:40:07;;;;;;;12.63;3.70;;;1.50;99.90;;;;;;5091413;28;20040;-83
2023/12/27 02:42:36;;;;;;;10.90;3.33;;;1.20;99.90;;;;;;5090809;28;20089;-83
2023/12/27 02:45:03;;;;;;;8.50;2.65;;;1.20;99.90;;;;;;5091362;28;20048;-83
2023/12/27 02:47:30;;;;;;;12.80;3.60;;;1.20;99.90;;;;;;5091193;28;20047;-83
2023/12/27 02:49:57;;;;;;;9.80;3.60;;;1.20;99.90;;;;;;5090996;28;20047;-83
2023/12/27 02:52:24;;;;;;;9.15;3.08;;;1.20;99.90;;;;;;5091094;28;20044;-84
2023/12/27 02:54:51;;;;;;;8.95;2.90;;;1.30;99.90;;;;;;5090887;28;20109;-84
2023/12/27 02:57:18;;;;;;;9.20;3.03;;;1.20;99.90;;;;;;5088500;28;20093;-83
2023/12/27 02:59:46;;;;;;;7.30;3.65;;;1.30;99.90;;;;;;5091262;28;20047;-84
2023/12/27 03:02:13;;;;;;;8.40;2.93;;;1.20;99.90;;;;;;5090293;28;20050;-83
2023/12/27 03:04:40;;;;;;;9.70;3.08;;;1.30;99.90;;;;;;5091211;28;20044;-83
2023/12/27 03:07:07;;;;;;;12.13;3.03;;;1.90;99.90;;;;;;5090766;28;20052;-85
2023/12/27 03:09:34;;;;;;;8.07;2.78;;;1.30;99.90;;;;;;5090344;28;20433;-84
2023/12/27 03:12:01;;;;;;;12.35;3.50;;;1.30;99.90;;;;;;5091073;28;20052;-85
2023/12/27 03:14:28;;;;;;;8.88;2.75;;;2.40;99.90;;;;;;5088815;28;20507;-83
2023/12/27 03:16:56;;;;;;;5.95;2.88;;;1.40;99.90;;;;;;5090372;28;20048;-83
2023/12/27 03:19:25;;;;;;;9.38;2.95;;;1.40;99.90;;;;;;5091856;28;20051;-84
2023/12/27 03:21:52;;;;;;;9.75;3.20;;;1.40;99.90;;;;;;5090838;28;20137;-85
2023/12/27 03:24:19;;;;;;;9.75;3.08;;;2.10;99.90;;;;;;5090185;28;20044;-83
2023/12/27 03:26:45;;;;;;;10.07;4.50;;;1.40;99.90;;;;;;5088624;28;20460;-84
2023/12/27 03:29:12;;;;;;;5.90;3.15;;;1.40;99.90;;;;;;5090999;28;20434;-83
2023/12/27 03:31:39;;;;;;;9.52;3.38;;;1.40;99.90;;;;;;5090581;28;20048;-82
2023/12/27 03:34:07;;;;;;;8.68;2.83;;;1.40;99.90;;;;;;5091048;28;20095;-83
2023/12/27 03:36:34;;;;;;;11.20;3.08;;;1.40;99.90;;;;;;5090860;28;20527;-84
2023/12/27 03:39:02;;;;;;;11.82;3.35;;;1.40;99.90;;;;;;5090336;28;20437;-84
2023/12/27 03:41:29;;;;;;;11.75;3.30;;;1.40;99.90;;;;;;5091209;28;20056;-82
2023/12/27 03:43:58;;;;;;;14.38;3.42;;;1.40;99.90;;;;;;5090977;28;20085;-84
2023/12/27 03:46:26;;;;;;;9.98;3.13;;;1.40;99.90;;;;;;5091069;28;20446;-84
2023/12/27 03:48:53;;;;;;;9.20;3.05;;;1.40;99.90;;;;;;5090893;28;20467;-84
2023/12/27 03:51:23;;;;;;;11.35;3.40;;;1.80;99.90;;;;;;5090034;28;20072;-85
2023/12/27 03:53:48;;;;;;;10.10;3.33;;;1.40;99.90;;;;;;5090498;28;20044;-84
2023/12/27 03:56:15;;;;;;;13.23;3.47;;;1.40;99.90;;;;;;5090594;28;20089;-83
2023/12/27 03:58:44;;;;;;;13.93;3.60;;;2.10;99.90;;;;;;5090126;28;20731;-83
2023/12/27 04:01:11;;;;;;;10.02;3.13;;;1.40;99.90;;;;;;5090754;28;20135;-83
2023/12/27 04:03:38;;;;;;;10.15;2.83;;;1.90;99.90;;;;;;5090463;28;20039;-83
2023/12/27 04:06:05;;;;;;;13.90;3.70;;;1.90;99.90;;;;;;5089997;28;20056;-83
2023/12/27 04:08:34;;;;;;;8.55;3.15;;;1.40;99.90;;;;;;5091006;28;20131;-83
2023/12/27 04:11:01;;;;;;;10.00;3.40;;;2.00;99.90;;;;;;5090567;28;20558;-83
2023/12/27 04:13:28;;;;;;;12.93;3.40;;;1.40;99.90;;;;;;5089919;28;20048;-83
2023/12/27 04:15:55;;;;;;;12.00;3.53;;;1.50;99.90;;;;;;5090402;28;20102;-83
2023/12/27 04:18:21;;;;;;;11.50;4.10;;;1.40;99.90;;;;;;5091327;28;20052;-82
2023/12/27 04:20:48;;;;;;;9.82;3.25;;;1.40;99.90;;;;;;5093803;28;20105;-83
2023/12/27 04:23:15;;;;;;;12.07;3.47;;;2.00;99.90;;;;;;5093636;28;20044;-83
2023/12/27 04:25:44;;;;;;;13.05;3.65;;;1.40;99.90;;;;;;5093906;28;20109;-84
2023/12/27 04:28:11;;;;;;;11.10;3.85;;;1.50;99.90;;;;;;5094266;28;20128;-83
2023/12/27 04:30:37;;;;;;;12.15;3.47;;;1.50;99.90;;;;;;5094361;28;20044;-83
2023/12/27 04:33:05;;;;;;;11.57;3.85;;;1.50;99.90;;;;;;5091566;28;20134;-82
2023/12/27 04:35:32;;;;;;;14.20;3.45;;;1.60;99.90;;;;;;5093109;28;20649;-82
2023/12/27 04:37:58;;;;;;;10.43;3.60;;;1.50;99.90;;;;;;5093094;28;20395;-82
2023/12/27 04:40:25;;;;;;;13.45;4.25;;;1.90;99.90;;;;;;5093827;28;20105;-82
2023/12/27 04:42:54;;;;;;;9.52;3.70;;;1.60;99.90;;;;;;5093243;28;20048;-82
2023/12/27 04:45:21;;;;;;;18.15;4.40;;;1.70;99.90;;;;;;5093551;28;20082;-82
2023/12/27 04:47:48;;;;;;;8.13;3.15;;;1.70;99.90;;;;;;5093127;28;20439;-82
2023/12/27 04:50:15;;;;;;;11.25;4.13;;;1.80;99.90;;;;;;5091846;28;20513;-82
2023/12/27 04:52:42;;;;;;;12.27;4.15;;;1.70;99.90;;;;;;5093872;28;20137;-82
2023/12/27 04:55:09;;;;;;;13.32;4.60;;;1.80;99.90;;;;;;5092878;28;20407;-82
2023/12/27 04:57:37;;;;;;;10.82;4.05;;;1.70;99.90;;;;;;5093773;28;20052;-81
2023/12/27 05:00:07;;;;;;;11.02;4.30;;;1.70;99.90;;;;;;5094185;28;20052;-83
2023/12/27 05:02:34;;;;;;;13.73;4.97;;;1.70;99.90;;;;;;5091496;28;20035;-82
2023/12/27 05:05:01;;;;;;;11.68;4.28;;;1.70;99.90;;;;;;5092968;28;20044;-82
2023/12/27 05:07:27;;;;;;;16.58;3.97;;;1.80;99.90;;;;;;5093217;28;20089;-82
2023/12/27 05:09:54;;;;;;;11.70;3.70;;;1.80;99.90;;;;;;5092332;28;20044;-82
2023/12/27 05:12:21;;;;;;;13.30;4.57;;;1.80;99.90;;;;;;5093162;28;20059;-82
2023/12/27 05:14:48;;;;;;;14.02;4.13;;;2.50;99.90;;;;;;5092990;28;20381;-81
2023/12/27 05:17:16;;;;;;;13.68;4.72;;;2.40;99.90;;;;;;5092538;28;20059;-81
2023/12/27 05:19:43;;;;;;;19.13;5.05;;;1.80;99.90;;;;;;5093043;28;20501;-82
2023/12/27 05:22:10;;;;;;;14.18;5.10;;;2.20;99.90;;;;;;5090658;28;20051;-82
2023/12/27 05:24:37;;;;;;;17.95;4.40;;;1.80;99.90;;;;;;5091775;28;20075;-82
2023/12/27 05:27:04;;;;;;;14.43;4.30;;;2.00;99.90;;;;;;5092907;28;20101;-82
2023/12/27 05:29:31;;;;;;;13.48;5.25;;;2.00;99.90;;;;;;5092398;28;20048;-82
2023/12/27 05:31:58;;;;;;;16.67;5.47;;;2.00;99.90;;;;;;5092096;28;20055;-82
2023/12/27 05:34:27;;;;;;;12.25;4.57;;;2.00;99.90;;;;;;5092579;28;20397;-82
2023/12/27 05:36:54;;;;;;;16.25;5.13;;;2.10;99.90;;;;;;5091689;28;20052;-81
2023/12/27 05:39:20;;;;;;;10.23;4.63;;;2.70;99.90;;;;;;5092559;28;20098;-81
2023/12/27 05:41:47;;;;;;;15.63;5.32;;;2.20;99.90;;;;;;5092440;28;20112;-81
2023/12/27 05:44:14;;;;;;;10.63;4.85;;;2.20;99.90;;;;;;5091659;28;20051;-82
2023/12/27 05:46:41;;;;;;;11.63;4.68;;;2.10;99.90;;;;;;5092304;28;20052;-82
2023/12/27 05:49:08;;;;;;;13.80;5.35;;;2.20;99.90;;;;;;5092449;28;20044;-85
2023/12/27 05:51:36;;;;;;;12.82;4.72;;;2.30;99.90;;;;;;5091552;28;20044;-84
2023/12/27 05:54:03;;;;;;;11.23;4.55;;;2.30;99.90;;;;;;5091770;28;20133;-83
2023/12/27 05:56:30;;;;;;;12.75;4.45;;;2.30;99.90;;;;;;5092193;28;20538;-83
2023/12/27 05:58:57;;;;;;;11.35;4.45;;;2.30;99.90;;;;;;5091844;28;20389;-84
2023/12/27 06:01:24;;;;;;;11.85;4.75;;;2.40;99.90;;;;;;5092399;28;20060;-82
2023/12/27 06:03:51;;;;;;;12.75;4.78;;;2.40;99.90;;;;;;5091900;28;20044;-82
2023/12/27 06:06:18;;;;;;;13.43;4.38;;;2.40;99.90;;;;;;5091606;28;20052;-84
2023/12/27 06:08:46;;;;;;;11.77;4.20;;;2.50;99.90;;;;;;5089931;28;20051;-84
2023/12/27 06:11:13;;;;;;;15.93;5.00;;;2.50;99.90;;;;;;5091972;28;20465;-83
2023/12/27 06:13:40;;;;;;;14.88;4.05;;;1.60;99.90;;;;;;5091460;28;20470;-83
2023/12/27 06:16:07;;;;;;;14.52;3.85;;;2.50;99.90;;;;;;5091853;28;20560;-83
2023/12/27 06:18:34;;;;;;;13.57;4.40;;;2.60;99.90;;;;;;5091844;28;20052;-81
2023/12/27 06:21:01;;;;;;;12.15;4.20;;;2.60;99.90;;;;;;5091162;28;20074;-81
2023/12/27 06:23:29;;;;;;;10.27;3.85;;;2.50;99.90;;;;;;5091785;28;20071;-81
2023/12/27 06:25:57;;;;;;;12.48;3.90;;;2.50;99.90;;;;;;5092731;28;20189;-81
2023/12/27 06:28:24;;;;;;;12.55;4.13;;;2.60;99.90;;;;;;5091362;28;20495;-81
2023/12/27 06:30:51;;;;;;;12.32;4.40;;;2.60;99.90;;;;;;5091666;28;20048;-82
2023/12/27 06:33:18;;;;;;;12.55;4.38;;;2.90;99.90;;;;;;5091131;28;20044;-82
2023/12/27 06:35:45;;;;;;;10.35;4.05;;;3.00;99.90;;;;;;5091269;28;20055;-83
2023/12/27 06:38:12;;;;;;;17.33;3.83;;;2.70;99.90;;;;;;5091391;28;20047;-82
2023/12/27 06:40:39;;;;;;;9.70;4.13;;;2.80;99.90;;;;;;5090236;28;20050;-81
2023/12/27 06:43:07;;;;;;;16.33;3.80;;;3.40;99.90;;;;;;5091616;28;20047;-82
2023/12/27 06:45:34;;;;;;;7.88;3.30;;;3.40;99.90;;;;;;5091147;28;20047;-81
2023/12/27 06:48:02;;;;;;;11.10;3.38;;;2.90;99.90;;;;;;5091988;28;20068;-84
2023/12/27 06:50:29;;;;;;;10.60;3.58;;;2.80;99.90;;;;;;5088289;28;20044;-84
2023/12/27 06:52:56;;;;;;;13.77;4.20;;;2.90;99.90;;;;;;5085623;28;20044;-85
2023/12/27 06:55:23;;;;;;;13.25;4.28;;;3.00;99.90;;;;;;5087498;28;20463;-83
2023/12/27 06:57:50;;;;;;;12.18;3.60;;;3.10;99.90;;;;;;5084191;28;20049;-84
2023/12/27 07:00:19;;;;;;;13.50;3.70;;;3.30;99.90;;;;;;5089756;28;20557;-83
2023/12/27 07:02:46;;;;;;;11.45;3.47;;;3.00;99.90;;;;;;5086816;28;20116;-83
2023/12/27 07:05:13;;;;;;;10.80;2.90;;;3.10;99.90;;;;;;5088585;28;20045;-84
2023/12/27 07:07:40;;;;;;;10.13;3.35;;;3.10;99.90;;;;;;5089570;28;20097;-83
2023/12/27 07:10:09;;;;;;;7.43;2.72;;;3.10;99.90;;;;;;5089679;28;20052;-83
2023/12/27 07:12:36;;;;;;;10.57;3.53;;;3.20;99.90;;;;;;5088614;28;20411;-83
2023/12/27 07:15:03;;;;;;;6.70;2.53;;;3.20;99.90;;;;;;5089315;28;20077;-83
2023/12/27 07:17:31;;;;;;;8.90;2.88;;;3.30;99.90;;;;;;5088011;28;20389;-81
2023/12/27 07:19:59;;;;;;;12.23;2.70;;;3.40;99.90;;;;;;5090677;28;20048;-82
2023/12/27 07:22:26;;;;;;;7.18;2.38;;;3.40;99.90;;;;;;5090166;28;20573;-84
2023/12/27 07:24:52;;;;;;;9.20;2.10;;;3.40;99.90;;;;;;5090188;28;20059;-84
2023/12/27 07:27:19;;;;;;;7.45;2.72;;;3.60;99.90;;;;;;5088781;28;20093;-84
2023/12/27 07:29:46;;;;;;;9.00;3.00;;;3.50;99.90;;;;;;5090458;28;20134;-84
2023/12/27 07:32:13;;;;;;;13.55;3.20;;;3.60;99.90;;;;;;5089749;28;20047;-85
2023/12/27 07:34:42;;;;;;;10.10;3.15;;;3.60;99.90;;;;;;5089060;28;20044;-84
2023/12/27 07:37:09;;;;;;;9.70;2.40;;;3.60;99.90;;;;;;5089799;28;20048;-82
2023/12/27 07:39:36;;;;;;;10.20;2.35;;;3.60;99.90;;;;;;5090522;28;20135;-82
2023/12/27 07:42:03;;;;;;;9.82;3.03;;;3.70;99.90;;;;;;5090376;28;20060;-82
2023/12/27 07:44:30;;;;;;;6.38;2.05;;;3.70;99.90;;;;;;5089258;28;20384;-82
2023/12/27 07:46:57;;;;;;;8.95;2.95;;;3.70;99.90;;;;;;5090343;28;20101;-82
2023/12/27 07:49:25;;;;;;;8.27;2.70;;;3.70;99.90;;;;;;5090513;28;20053;-83
2023/12/27 07:51:53;;;;;;;7.32;2.45;;;3.70;99.90;;;;;;5089474;28;20048;-84
2023/12/27 07:54:20;;;;;;;6.55;2.40;;;3.80;99.90;;;;;;5086316;28;20102;-84
2023/12/27 07:56:47;;;;;;;7.00;3.08;;;4.20;99.90;;;;;;5093512;28;20416;-84
2023/12/27 07:59:13;;;;;;;8.85;2.60;;;3.80;99.90;;;;;;5091197;28;20575;-84
2023/12/27 08:01:40;;;;;;;10.07;3.70;;;3.80;99.90;;;;;;5087701;28;20397;-84
2023/12/27 08:04:07;;;;;;;7.57;3.10;;;3.80;99.90;;;;;;5090656;28;20098;-84
2023/12/27 08:06:34;;;;;;;10.93;4.13;;;3.80;99.90;;;;;;5092164;28;20105;-84
2023/12/27 08:09:02;;;;;;;10.20;3.40;;;3.80;99.90;;;;;;5091708;28;20045;-84
2023/12/27 08:11:29;;;;;;;6.95;3.10;;;3.80;99.90;;;;;;5089560;28;20112;-84
2023/12/27 08:13:56;;;;;;;12.27;3.58;;;3.90;99.90;;;;;;5076010;28;20048;-84
2023/12/27 08:16:24;;;;;;;9.73;3.20;;;3.90;99.90;;;;;;5089485;28;20425;-84
2023/12/27 08:18:52;;;;;;;15.65;4.63;;;3.90;99.90;;;;;;5092183;28;20056;-84
2023/12/27 08:21:19;;;;;;;10.25;3.47;;;3.90;99.90;;;;;;5092772;28;20071;-83
2023/12/27 08:23:46;;;;;;;10.70;3.42;;;3.90;99.90;;;;;;5091312;28;20044;-84
2023/12/27 08:26:15;;;;;;;10.38;3.80;;;3.90;99.90;;;;;;5088720;28;20054;-83
2023/12/27 08:28:41;;;;;;;12.63;4.10;;;3.90;99.90;;;;;;5087774;28;20484;-84
2023/12/27 08:31:09;;;;;;;8.68;4.05;;;3.90;99.90;;;;;;5090374;28;20487;-84
2023/12/27 08:33:36;;;;;;;6.07;3.80;;;3.90;99.90;;;;;;5087675;28;20126;-84
2023/12/27 08:36:03;;;;;;;11.85;4.07;;;3.90;99.90;;;;;;5087711;28;20079;-84
2023/12/27 08:38:30;;;;;;;9.85;4.15;;;3.90;99.90;;;;;;5089928;28;20056;-84
2023/12/27 08:40:57;;;;;;;10.73;4.35;;;4.00;99.90;;;;;;5088299;28;20097;-84
2023/12/27 08:43:29;;;;;;;7.45;3.85;;;4.00;99.90;;;;;;5085853;28;20059;-84
2023/12/27 08:45:56;;;;;;;13.25;4.90;;;4.00;99.90;;;;;;5089774;28;20051;-84
2023/12/27 08:48:23;;;;;;;14.45;4.07;;;4.00;99.90;;;;;;5091367;28;20479;-85
2023/12/27 08:50:50;;;;;;;9.85;4.28;;;4.00;99.90;;;;;;5091893;28;20055;-82
2023/12/27 08:53:17;;;;;;;9.52;4.00;;;4.00;99.90;;;;;;5092007;28;20488;-82
2023/12/27 08:55:43;;;;;;;12.43;4.22;;;4.00;99.90;;;;;;5090493;28;20052;-85
2023/12/27 08:58:12;;;;;;;10.02;4.43;;;4.00;99.90;;;;;;5090767;28;20169;-86
2023/12/27 09:00:40;;;;;;;7.95;3.63;;;4.10;99.90;;;;;;5091166;28;20507;-85
2023/12/27 09:03:07;;;;;;;9.95;4.07;;;4.10;99.90;;;;;;5092069;28;20058;-85
2023/12/27 09:05:34;;;;;;;14.77;5.05;;;4.60;99.90;;;;;;5088621;28;20044;-85
2023/12/27 09:08:01;;;;;;;12.65;4.25;;;4.20;99.90;;;;;;5089450;28;20385;-85
2023/12/27 09:10:28;;;;;;;9.57;4.45;;;4.10;99.90;;;;;;5091655;28;20117;-85
2023/12/27 09:12:55;;;;;;;11.43;4.10;;;4.10;99.90;;;;;;5092686;28;20052;-85
2023/12/27 09:15:22;;;;;;;10.75;4.13;;;4.10;99.90;;;;;;5092285;28;20085;-84
2023/12/27 09:17:50;;;;;;;8.77;3.65;;;4.10;99.90;;;;;;5092414;28;20446;-84
2023/12/27 09:20:17;;;;;;;10.27;3.88;;;4.10;99.90;;;;;;5092132;28;20040;-84
2023/12/27 09:22:44;;;;;;;6.60;3.95;;;4.10;99.90;;;;;;5092244;28;20434;-84
2023/12/27 09:25:12;;;;;;;11.85;3.80;;;4.20;99.90;;;;;;5092189;28;20044;-85
2023/12/27 09:27:39;;;;;;;9.32;4.43;;;4.20;99.90;;;;;;5092748;28;20442;-84
2023/12/27 09:30:07;;;;;;;10.63;4.30;;;4.20;99.90;;;;;;5091950;28;20051;-85
2023/12/27 09:32:34;;;;;;;11.13;3.35;;;4.20;99.90;;;;;;5092370;28;20142;-85
2023/12/27 09:35:02;;;;;;;12.50;4.00;;;4.20;99.90;;;;;;5092588;28;20369;-84
2023/12/27 09:37:30;;;;;;;11.20;3.08;;;4.30;99.90;;;;;;5092833;28;20076;-85
2023/12/27 09:39:57;;;;;;;8.80;3.47;;;4.30;99.90;;;;;;5092354;28;20047;-85
2023/12/27 09:42:24;;;;;;;10.98;3.05;;;4.30;99.90;;;;;;5092378;28;20396;-85
2023/12/27 09:44:53;;;;;;;13.73;3.67;;;4.30;99.90;;;;;;5091609;28;20334;-86
2023/12/27 09:47:21;;;;;;;9.80;3.40;;;4.40;99.90;;;;;;5092288;28;20393;-85
2023/12/27 09:49:50;;;;;;;10.48;3.30;;;4.40;99.90;;;;;;5091977;28;20044;-85
2023/12/27 09:52:20;;;;;;;11.55;2.72;;;4.40;99.90;;;;;;5089390;28;20488;-86
2023/12/27 09:54:47;;;;;;;11.33;3.20;;;5.50;99.90;;;;;;5091821;28;20058;-85
2023/12/27 09:57:14;;;;;;;13.52;4.15;;;4.40;99.90;;;;;;5091657;28;20408;-85
2023/12/27 09:59:46;;;;;;;9.18;3.00;;;4.50;99.90;;;;;;5092129;28;20404;-85
2023/12/27 10:02:18;;;;;;;16.67;3.55;;;4.50;99.90;;;;;;5091875;28;20059;-85
2023/12/27 10:04:54;;;;;;;10.63;3.20;;;4.50;99.90;;;;;;5091356;28;20059;-85
2023/12/27 10:07:24;;;;;;;14.23;3.47;;;4.60;99.90;;;;;;5091902;28;20056;-85
2023/12/27 10:09:51;;;;;;;7.35;3.25;;;4.60;99.90;;;;;;5091810;28;21030;-85
2023/12/27 10:12:20;;;;;;;12.82;3.15;;;4.60;99.90;;;;;;5091096;28;20065;-85
2023/12/27 10:14:47;;;;;;;10.20;3.20;;;4.70;99.90;;;;;;5091622;28;20044;-85
2023/12/27 10:17:14;;;;;;;8.68;3.17;;;4.70;99.90;;;;;;5090901;28;20048;-84
2023/12/27 10:19:42;;;;;;;11.68;3.50;;;4.70;99.90;;;;;;5090820;28;20063;-85
2023/12/27 10:22:10;;;;;;;11.55;4.00;;;4.80;99.90;;;;;;5091596;28;20039;-86
2023/12/27 10:24:39;;;;;;;8.93;3.30;;;4.80;99.90;;;;;;5091686;28;20499;-85
2023/12/27 10:27:07;;;;;;;11.45;3.67;;;4.90;99.90;;;;;;5090860;28;20052;-86
2023/12/27 10:29:34;;;;;;;12.82;3.95;;;4.90;99.90;;;;;;5091296;28;20499;-85
2023/12/27 10:32:02;;;;;;;11.23;4.38;;;4.90;99.90;;;;;;5091595;28;20569;-84
2023/12/27 10:34:29;;;;;;;8.88;4.15;;;5.00;99.90;;;;;;5090750;28;20048;-86
2023/12/27 10:36:57;;;;;;;13.63;3.80;;;5.00;99.90;;;;;;5091231;28;20515;-85
2023/12/27 10:39:24;;;;;;;9.43;4.07;;;5.10;99.90;;;;;;5090879;28;20369;-85
2023/12/27 10:41:54;;;;;;;9.35;4.25;;;5.10;99.90;;;;;;5091302;28;20059;-84
2023/12/27 10:44:22;;;;;;;13.57;4.50;;;5.20;99.90;;;;;;5091598;28;20048;-85
2023/12/27 10:46:50;;;;;;;13.95;4.43;;;5.20;99.90;;;;;;5090618;28;20036;-85
2023/12/27 10:49:18;;;;;;;10.77;4.47;;;5.20;99.90;;;;;;5091103;28;20048;-85
2023/12/27 10:51:48;;;;;;;9.82;4.15;;;5.20;99.90;;;;;;5091242;28;20458;-84
2023/12/27 10:54:15;;;;;;;11.50;4.25;;;5.50;99.90;;;;;;5090253;28;20052;-84
2023/12/27 10:56:44;;;;;;;11.23;4.88;;;5.30;99.90;;;;;;5091389;28;20040;-84
2023/12/27 10:59:12;;;;;;;14.90;5.43;;;5.30;99.90;;;;;;5091543;28;20043;-84
2023/12/27 11:01:41;;;;;;;13.32;5.28;;;5.30;99.90;;;;;;5090640;28;20047;-84
2023/12/27 11:04:09;;;;;;;10.95;5.15;;;5.30;99.90;;;;;;5089150;28;20511;-84
2023/12/27 11:06:38;;;;;;;11.30;4.90;;;5.40;99.90;;;;;;5091395;28;20082;-84
2023/12/27 11:09:07;;;;;;;11.40;4.85;;;5.40;99.90;;;;;;5090762;28;20083;-84
2023/12/27 11:11:37;;;;;;;13.23;5.38;;;5.40;99.90;;;;;;5091590;28;20151;-84
2023/12/27 11:14:06;;;;;;;14.80;5.57;;;5.40;99.90;;;;;;5091499;28;20147;-84
2023/12/27 11:16:36;;;;;;;14.75;6.15;;;5.40;99.90;;;;;;5090731;28;20044;-84
2023/12/27 11:19:05;;;;;;;11.40;5.38;;;5.40;99.90;;;;;;5091477;28;20052;-84
2023/12/27 11:21:31;;;;;;;18.40;5.60;;;5.40;99.90;;;;;;5088618;28;20081;-84
2023/12/27 11:23:58;;;;;;;13.48;4.55;;;5.40;99.90;;;;;;5090758;28;20040;-84
2023/12/27 11:26:26;;;;;;;19.25;6.25;;;5.40;99.90;;;;;;5090735;28;20063;-84
2023/12/27 11:28:53;;;;;;;14.40;6.55;;;5.30;99.90;;;;;;5094338;28;20503;-85
2023/12/27 11:31:20;;;;;;;14.05;5.57;;;5.30;99.90;;;;;;5094785;28;20044;-85
2023/12/27 11:33:50;;;;;;;14.55;5.50;;;5.30;99.90;;;;;;5095142;28;20044;-86
2023/12/27 11:36:17;;;;;;;12.43;5.30;;;5.30;99.90;;;;;;5094211;28;20051;-85
2023/12/27 11:38:46;;;;;;;16.52;6.18;;;5.30;99.90;;;;;;5096434;28;20090;-84
2023/12/27 11:41:12;;;;;;;13.10;6.03;;;5.30;99.90;;;;;;5094978;28;20048;-83
2023/12/27 11:43:53;;;;;;;12.82;5.38;;;5.30;99.90;;;;;;5094279;28;20055;-83
2023/12/27 11:46:27;;;;;;;11.10;6.25;;;5.20;99.90;;;;;;5094674;28;20087;-85
2023/12/27 11:48:55;;;;;;;20.25;6.65;;;5.30;99.90;;;;;;5094682;28;20044;-86
2023/12/27 11:51:26;;;;;;;17.40;6.20;;;5.30;99.90;;;;;;5094311;28;20145;-87
2023/12/27 11:53:53;;;;;;;18.08;6.93;;;5.20;99.90;;;;;;5094457;28;20082;-85
2023/12/27 11:56:20;;;;;;;15.38;7.15;;;5.70;99.90;;;;;;5094449;28;20040;-85
2023/12/27 11:58:49;;;;;;;20.02;7.55;;;5.10;99.90;;;;;;5093663;28;20093;-83
2023/12/27 12:01:26;;;;;;;11.43;6.28;;;5.10;99.90;;;;;;5094455;28;20060;-84
2023/12/27 12:04:10;;;;;;;14.65;6.97;;;5.10;99.90;;;;;;5094026;28;20089;-84
2023/12/27 12:07:07;;;;;;;14.25;6.68;;;5.10;99.90;;;;;;5092927;28;20090;-83
2023/12/27 12:09:38;;;;;;;14.25;7.38;;;5.20;99.90;;;;;;5094197;28;20052;-83
2023/12/27 12:12:12;;;;;;;14.10;7.55;;;5.10;99.90;;;;;;5093803;28;20048;-84
2023/12/27 12:14:40;;;;;;;13.27;6.75;;;5.00;99.90;;;;;;5095251;28;20465;-85
2023/12/27 12:17:08;;;;;;;20.30;8.48;;;5.00;99.90;;;;;;5094738;28;20040;-84
2023/12/27 12:19:36;;;;;;;16.85;8.05;;;5.00;99.90;;;;;;5094196;28;20052;-85
2023/12/27 12:22:03;;;;;;;19.27;8.45;;;5.00;99.90;;;;;;5095180;28;20051;-85
2023/12/27 12:24:30;;;;;;;20.38;8.30;;;5.00;99.90;;;;;;5095280;28;20093;-85
2023/12/27 12:26:57;;;;;;;15.57;7.63;;;4.90;99.90;;;;;;5096144;28;20048;-86
2023/12/27 12:29:25;;;;;;;20.38;9.20;;;4.90;99.90;;;;;;5094857;28;20048;-85
2023/12/27 12:31:53;;;;;;;13.30;7.63;;;5.00;99.90;;;;;;5095059;28;20048;-84
2023/12/27 12:34:20;;;;;;;18.20;8.05;;;5.00;99.90;;;;;;5094472;28;20055;-84
2023/12/27 12:36:49;;;;;;;20.75;8.93;;;5.00;99.90;;;;;;5094226;28;20047;-85
2023/12/27 12:39:16;;;;;;;21.35;7.82;;;5.00;99.90;;;;;;5092419;28;20159;-85
2023/12/27 12:41:43;;;;;;;16.27;8.13;;;4.90;99.90;;;;;;5093806;28;20059;-85
2023/12/27 12:44:10;;;;;;;19.23;9.10;;;5.00;99.90;;;;;;5093445;28;20448;-84
2023/12/27 12:46:39;;;;;;;16.38;9.45;;;5.10;99.90;;;;;;5093989;28;20110;-85
2023/12/27 12:49:07;;;;;;;15.95;8.63;;;5.70;99.90;;;;;;5093319;28;20102;-84
2023/12/27 12:51:34;;;;;;;18.58;9.30;;;5.10;99.90;;;;;;5093638;28;20492;-84